Time;durP1;ratioP1;P1;durP2;ratioP2;P2;SDS_P1;SDS_P2;PMS_P1;PMS_P2;Temp;Humidity;BMP_temperature;BMP_pressure;BME280_temperature;BME280_humidity;BME280_pressure;Samples;Min_cycle;Max_cycle;Signal;HPM_P1;HPM_P2
2023/02/23 00:01:16;;;;;;;65.67;55.07;;;9.70;99.90;;;;;;5052677;28;20597;-75
2023/02/23 00:03:44;;;;;;;75.10;54.43;;;9.70;99.90;;;;;;5057549;28;20471;-73
2023/02/23 00:06:12;;;;;;;66.30;55.63;;;9.70;99.90;;;;;;5059423;28;21014;-73
2023/02/23 00:08:39;;;;;;;68.17;55.43;;;9.80;99.90;;;;;;5066364;28;20826;-74
2023/02/23 00:11:08;;;;;;;72.30;55.27;;;9.70;99.90;;;;;;5057149;28;20487;-74
2023/02/23 00:13:37;;;;;;;65.20;54.97;;;9.80;99.90;;;;;;5056295;28;20829;-73
2023/02/23 00:16:06;;;;;;;78.20;56.37;;;9.80;99.90;;;;;;5052713;28;20467;-73
2023/02/23 00:18:43;;;;;;;74.47;55.40;;;9.80;99.90;;;;;;5062014;28;21033;-73
2023/02/23 00:21:13;;;;;;;70.80;58.23;;;9.80;99.90;;;;;;5057339;28;20489;-74
2023/02/23 00:23:41;;;;;;;71.73;58.13;;;9.80;99.90;;;;;;5052826;28;20843;-73
2023/02/23 00:26:08;;;;;;;70.87;57.17;;;9.80;99.90;;;;;;5059479;28;20463;-75
2023/02/23 00:28:37;;;;;;;74.70;57.43;;;9.80;99.90;;;;;;5058271;28;20490;-73
2023/02/23 00:31:04;;;;;;;70.67;56.07;;;9.80;99.90;;;;;;5049205;28;20824;-73
2023/02/23 00:33:33;;;;;;;68.20;53.10;;;9.80;99.90;;;;;;5060390;28;20461;-75
2023/02/23 00:36:05;;;;;;;74.17;57.93;;;9.90;99.90;;;;;;5058359;28;20483;-73
2023/02/23 00:38:35;;;;;;;65.80;56.00;;;9.90;99.90;;;;;;5060636;28;20988;-73
2023/02/23 00:41:06;;;;;;;66.23;56.40;;;9.80;99.90;;;;;;5061952;28;21015;-74
2023/02/23 00:43:46;;;;;;;77.40;57.87;;;9.70;99.90;;;;;;5058773;28;20466;-74
2023/02/23 00:46:15;;;;;;;74.90;58.97;;;9.80;99.90;;;;;;5050002;28;20470;-74
2023/02/23 00:48:42;;;;;;;76.73;57.10;;;9.80;99.90;;;;;;5057949;28;20465;-75
2023/02/23 00:51:10;;;;;;;64.93;55.10;;;9.90;99.90;;;;;;5053573;28;20467;-73
2023/02/23 00:53:37;;;;;;;74.23;56.70;;;9.80;99.90;;;;;;5065125;28;20463;-73
2023/02/23 00:56:05;;;;;;;74.53;54.00;;;9.70;99.90;;;;;;5054447;28;20823;-74
2023/02/23 00:58:32;;;;;;;71.50;54.70;;;9.70;99.90;;;;;;5053334;28;20468;-73
2023/02/23 01:01:01;;;;;;;64.30;57.40;;;9.70;99.90;;;;;;5053003;28;20638;-74
2023/02/23 01:03:29;;;;;;;70.60;58.57;;;9.70;99.90;;;;;;5055480;28;20458;-73
2023/02/23 01:06:03;;;;;;;69.70;58.20;;;9.70;99.90;;;;;;5048040;28;21036;-74
2023/02/23 01:08:30;;;;;;;74.07;59.10;;;9.60;99.90;;;;;;5059164;28;20463;-73
2023/02/23 01:10:58;;;;;;;67.07;57.87;;;9.60;99.90;;;;;;5057096;28;20590;-73
2023/02/23 01:13:26;;;;;;;65.67;57.53;;;9.60;99.90;;;;;;5051088;28;20877;-73
2023/02/23 01:15:54;;;;;;;69.73;58.10;;;9.60;99.90;;;;;;5056582;28;20463;-74
2023/02/23 01:18:23;;;;;;;66.50;56.17;;;9.70;99.90;;;;;;5058889;28;20981;-73
2023/02/23 01:20:50;;;;;;;67.90;57.57;;;9.70;99.90;;;;;;5055409;28;21007;-72
2023/02/23 01:23:17;;;;;;;65.20;56.93;;;9.70;99.90;;;;;;5056797;28;20543;-73
2023/02/23 01:25:45;;;;;;;76.00;58.20;;;9.60;99.90;;;;;;5056390;28;20463;-73
2023/02/23 01:28:12;;;;;;;77.20;58.80;;;9.60;99.90;;;;;;5056440;28;20469;-74
2023/02/23 01:30:40;;;;;;;67.70;58.27;;;9.50;99.90;;;;;;5058150;28;20459;-74
2023/02/23 01:33:08;;;;;;;72.63;59.80;;;9.50;99.90;;;;;;5058667;28;20483;-74
2023/02/23 01:35:36;;;;;;;70.30;56.93;;;9.50;99.90;;;;;;5054351;28;20507;-75
2023/02/23 01:38:03;;;;;;;78.40;60.13;;;9.50;99.90;;;;;;5055648;28;20452;-75
2023/02/23 01:40:31;;;;;;;71.03;55.70;;;9.60;99.90;;;;;;5061156;28;20483;-74
2023/02/23 01:43:00;;;;;;;70.67;58.40;;;9.70;99.90;;;;;;5056326;28;20671;-74
2023/02/23 01:45:33;;;;;;;65.37;56.30;;;9.70;99.90;;;;;;5053659;28;20463;-73
2023/02/23 01:48:04;;;;;;;70.80;57.43;;;9.70;99.90;;;;;;5044940;28;20514;-76
2023/02/23 01:50:40;;;;;;;78.53;60.97;;;9.50;99.90;;;;;;5052782;28;20470;-74
2023/02/23 01:53:07;;;;;;;85.30;60.57;;;9.40;99.90;;;;;;5056992;28;20538;-75
2023/02/23 01:55:35;;;;;;;87.23;58.77;;;9.40;99.90;;;;;;5056705;28;20455;-74
2023/02/23 01:58:07;;;;;;;79.20;58.33;;;9.40;99.90;;;;;;5054679;28;20471;-74
2023/02/23 02:00:36;;;;;;;75.17;58.97;;;9.50;99.90;;;;;;5051827;28;20610;-76
2023/02/23 02:03:07;;;;;;;75.90;59.97;;;9.50;99.90;;;;;;5057208;28;21080;-75
2023/02/23 02:05:38;;;;;;;83.97;55.43;;;9.50;99.90;;;;;;5057951;28;20456;-74
2023/02/23 02:08:09;;;;;;;73.27;58.67;;;9.40;99.90;;;;;;5063979;28;20567;-74
2023/02/23 02:10:43;;;;;;;78.73;55.80;;;9.40;99.90;;;;;;5065823;28;20497;-73
2023/02/23 02:13:19;;;;;;;94.43;57.40;;;9.50;99.90;;;;;;5062834;28;20461;-73
2023/02/23 02:16:13;;;;;;;82.50;57.60;;;9.50;99.90;;;;;;5069614;28;20461;-74
2023/02/23 02:18:56;;;;;;;77.80;56.80;;;9.40;99.90;;;;;;5055172;28;20463;-74
2023/02/23 02:21:56;;;;;;;80.67;57.17;;;9.40;99.90;;;;;;5060572;28;20486;-73
2023/02/23 02:24:52;;;;;;;78.50;57.37;;;9.40;99.90;;;;;;5058565;28;20467;-74
2023/02/23 02:27:30;;;;;;;71.93;58.40;;;9.40;99.90;;;;;;5058063;28;20553;-75
2023/02/23 02:30:33;;;;;;;71.90;57.53;;;9.40;99.90;;;;;;5057647;28;21159;-74
2023/02/23 02:33:36;;;;;;;69.43;56.87;;;9.50;99.90;;;;;;5060407;28;20549;-73
2023/02/23 02:36:30;;;;;;;74.80;58.67;;;9.40;99.90;;;;;;5058528;28;20539;-74
2023/02/23 02:39:07;;;;;;;69.83;58.13;;;9.40;99.90;;;;;;5055237;28;20462;-73
2023/02/23 02:41:41;;;;;;;73.10;57.10;;;9.40;99.90;;;;;;5060920;28;20889;-74
2023/02/23 02:44:15;;;;;;;75.83;59.00;;;9.40;99.90;;;;;;5062585;28;20473;-74
2023/02/23 02:46:48;;;;;;;75.23;59.37;;;9.40;99.90;;;;;;5063589;28;20542;-75
2023/02/23 02:49:20;;;;;;;81.67;60.67;;;9.40;99.90;;;;;;5069750;28;20453;-73
2023/02/23 02:51:55;;;;;;;79.77;59.03;;;9.40;99.90;;;;;;5057606;28;20745;-74
2023/02/23 02:54:27;;;;;;;88.90;60.87;;;9.40;99.90;;;;;;5060630;28;20466;-74
2023/02/23 02:56:56;;;;;;;87.63;63.50;;;9.40;99.90;;;;;;5062487;28;20968;-74
2023/02/23 04:18:13;;;;;;;98.50;66.23;;;9.20;99.90;;;;;;5059684;28;20516;-74
2023/02/23 04:20:40;;;;;;;92.80;64.40;;;9.20;99.90;;;;;;5058012;28;20487;-74
2023/02/23 04:23:07;;;;;;;80.83;62.33;;;9.20;99.90;;;;;;5057075;28;20467;-73
2023/02/23 04:25:34;;;;;;;89.07;63.30;;;9.20;99.90;;;;;;5047912;28;20471;-73
2023/02/23 04:28:02;;;;;;;92.97;62.30;;;9.10;99.90;;;;;;5057885;28;20463;-74
2023/02/23 04:30:29;;;;;;;108.63;67.30;;;9.20;99.90;;;;;;5053863;28;20467;-73
2023/02/23 04:32:58;;;;;;;106.30;63.07;;;9.20;99.90;;;;;;5054931;28;20905;-75
2023/02/23 04:35:27;;;;;;;116.40;65.60;;;9.20;99.90;;;;;;5055539;28;20953;-73
2023/02/23 04:37:55;;;;;;;90.37;62.53;;;9.20;99.90;;;;;;5054501;28;20557;-73
2023/02/23 04:40:23;;;;;;;117.63;62.63;;;9.20;99.90;;;;;;5059962;28;20467;-74
2023/02/23 04:42:50;;;;;;;98.17;62.53;;;9.20;99.90;;;;;;5058306;28;20482;-74
2023/02/23 04:45:17;;;;;;;89.60;61.37;;;9.10;99.90;;;;;;5055163;28;21044;-74
2023/02/23 04:47:44;;;;;;;81.33;61.73;;;9.10;99.90;;;;;;5055314;28;20876;-73
2023/02/23 04:50:12;;;;;;;90.97;61.90;;;9.10;99.90;;;;;;5057735;28;20891;-73
2023/02/23 04:52:40;;;;;;;90.73;61.37;;;9.10;99.90;;;;;;5058313;28;20474;-74
2023/02/23 04:55:12;;;;;;;97.77;62.70;;;9.00;99.90;;;;;;5059044;28;20463;-73
2023/02/23 04:57:39;;;;;;;100.13;60.77;;;9.00;99.90;;;;;;5059927;28;20451;-74
2023/02/23 05:00:08;;;;;;;88.40;63.27;;;9.10;99.90;;;;;;5057441;28;20988;-72
2023/02/23 05:02:35;;;;;;;95.37;64.23;;;9.00;99.90;;;;;;5054320;28;20499;-74
2023/02/23 05:05:02;;;;;;;93.80;63.10;;;9.00;99.90;;;;;;5058419;28;20466;-72
2023/02/23 05:07:29;;;;;;;96.87;62.47;;;9.00;99.90;;;;;;5062052;28;20494;-73
2023/02/23 05:09:57;;;;;;;87.57;62.90;;;8.90;99.90;;;;;;5059707;28;20481;-74
2023/02/23 05:12:25;;;;;;;95.73;64.97;;;8.90;99.90;;;;;;5054201;28;20463;-73
2023/02/23 05:14:52;;;;;;;100.73;63.83;;;9.00;99.90;;;;;;5056746;28;20494;-73
2023/02/23 05:17:19;;;;;;;91.07;62.83;;;9.00;99.90;;;;;;5058292;28;20470;-73
2023/02/23 05:19:46;;;;;;;89.83;60.73;;;9.10;99.90;;;;;;5057349;28;20452;-72
2023/02/23 05:22:13;;;;;;;84.57;61.80;;;9.00;99.90;;;;;;5055564;28;20507;-73
2023/02/23 05:24:40;;;;;;;86.03;62.30;;;8.90;99.90;;;;;;5054421;28;20708;-73
2023/02/23 05:27:09;;;;;;;91.43;64.40;;;8.90;99.90;;;;;;5057382;28;20485;-73
2023/02/23 05:29:36;;;;;;;90.70;62.23;;;9.00;99.90;;;;;;5052249;28;20469;-73
2023/02/23 05:32:03;;;;;;;88.83;60.07;;;8.90;99.90;;;;;;5049649;28;20467;-74
2023/02/23 05:34:30;;;;;;;86.33;58.60;;;9.00;99.90;;;;;;5051498;28;20464;-73
2023/02/23 05:36:57;;;;;;;91.20;61.27;;;9.00;99.90;;;;;;5060071;28;20803;-72
2023/02/23 05:39:24;;;;;;;94.87;63.20;;;9.00;99.90;;;;;;5056567;28;20451;-73
2023/02/23 05:41:51;;;;;;;85.03;61.13;;;9.00;99.90;;;;;;5046285;28;20510;-74
2023/02/23 05:44:19;;;;;;;96.17;60.77;;;9.00;99.90;;;;;;5058818;28;20774;-73
2023/02/23 05:46:47;;;;;;;93.80;60.50;;;9.00;99.90;;;;;;5051856;28;20499;-73
2023/02/23 05:49:13;;;;;;;95.50;62.30;;;9.00;99.90;;;;;;5058335;28;20574;-73
2023/02/23 05:51:41;;;;;;;94.77;60.47;;;9.00;99.90;;;;;;5054772;28;20475;-74
2023/02/23 05:54:09;;;;;;;106.83;64.27;;;9.00;99.90;;;;;;5049636;28;20495;-73
2023/02/23 05:56:35;;;;;;;89.30;60.27;;;9.00;99.90;;;;;;5051892;28;20946;-74
2023/02/23 05:59:03;;;;;;;94.53;63.70;;;9.00;99.90;;;;;;5052070;28;20485;-74
2023/02/23 06:01:32;;;;;;;89.37;60.87;;;9.00;99.90;;;;;;5057546;28;20593;-74
2023/02/23 06:03:59;;;;;;;100.23;63.07;;;9.00;99.90;;;;;;5055733;28;20463;-74
2023/02/23 06:06:27;;;;;;;84.30;58.37;;;8.90;99.90;;;;;;5059047;28;20455;-73
2023/02/23 06:08:55;;;;;;;90.00;61.07;;;8.90;99.90;;;;;;5056908;28;20486;-74
2023/02/23 06:11:22;;;;;;;93.90;61.07;;;8.90;99.90;;;;;;5049690;28;20480;-74
2023/02/23 06:13:49;;;;;;;89.10;60.00;;;8.90;99.90;;;;;;5051480;28;20921;-74
2023/02/23 06:16:16;;;;;;;98.73;63.10;;;8.80;99.90;;;;;;5059280;28;20594;-74
2023/02/23 06:18:44;;;;;;;87.37;62.60;;;8.80;99.90;;;;;;5059724;28;20465;-74
2023/02/23 06:21:11;;;;;;;86.40;60.40;;;8.80;99.90;;;;;;5059320;28;20513;-74
2023/02/23 06:23:38;;;;;;;89.63;61.67;;;8.70;99.90;;;;;;5056000;28;20493;-74
2023/02/23 06:26:05;;;;;;;126.10;60.60;;;8.70;99.90;;;;;;5048791;28;20474;-74
2023/02/23 06:28:32;;;;;;;102.07;63.23;;;8.70;99.90;;;;;;5049879;28;20467;-74
2023/02/23 06:30:59;;;;;;;80.30;60.43;;;8.70;99.90;;;;;;5050310;28;21002;-73
2023/02/23 06:33:27;;;;;;;101.10;65.67;;;8.70;99.90;;;;;;5057420;28;20464;-73
2023/02/23 06:35:55;;;;;;;93.13;64.43;;;8.70;99.90;;;;;;5053729;28;20463;-74
2023/02/23 06:38:22;;;;;;;100.03;61.33;;;8.70;99.90;;;;;;5055413;28;20451;-74
2023/02/23 06:40:49;;;;;;;85.97;60.80;;;8.60;99.90;;;;;;5049691;28;20460;-73
2023/02/23 06:43:16;;;;;;;89.80;58.50;;;8.60;99.90;;;;;;5048298;28;20494;-74
2023/02/23 06:45:43;;;;;;;104.83;61.40;;;8.60;99.90;;;;;;5060010;28;20547;-73
2023/02/23 06:48:09;;;;;;;74.83;58.10;;;8.70;99.90;;;;;;5057887;28;20455;-73
2023/02/23 06:50:36;;;;;;;94.53;61.93;;;8.80;99.90;;;;;;5053484;28;20452;-74
2023/02/23 06:53:05;;;;;;;90.37;60.53;;;8.80;99.90;;;;;;5053935;28;20463;-74
2023/02/23 06:55:32;;;;;;;77.73;58.20;;;8.90;99.90;;;;;;5056704;28;20463;-74
2023/02/23 06:57:59;;;;;;;87.00;57.23;;;9.00;99.90;;;;;;5061573;28;20843;-74
2023/02/23 07:00:29;;;;;;;83.23;59.40;;;8.90;99.90;;;;;;5060657;28;20978;-74
2023/02/23 07:02:58;;;;;;;78.90;57.97;;;8.90;99.90;;;;;;5064652;28;20491;-72
2023/02/23 07:05:25;;;;;;;77.57;55.43;;;8.90;99.90;;;;;;5058548;28;20472;-72
2023/02/23 07:07:52;;;;;;;78.50;56.13;;;8.80;99.90;;;;;;5056020;28;20469;-73
2023/02/23 07:10:20;;;;;;;76.70;56.27;;;8.90;99.90;;;;;;5059040;28;20832;-72
2023/02/23 07:12:48;;;;;;;80.47;57.10;;;8.90;99.90;;;;;;5052779;28;20477;-72
2023/02/23 07:15:17;;;;;;;81.60;58.97;;;8.90;99.90;;;;;;5059339;28;20465;-73
2023/02/23 07:17:47;;;;;;;75.70;56.80;;;8.90;99.90;;;;;;5053249;28;20471;-73
2023/02/23 07:20:15;;;;;;;82.90;56.73;;;8.90;99.90;;;;;;5052164;28;20471;-72
2023/02/23 07:22:42;;;;;;;82.67;57.77;;;8.90;99.90;;;;;;5056748;28;20496;-73
2023/02/23 07:25:09;;;;;;;74.57;57.57;;;8.80;99.90;;;;;;5059347;28;20487;-72
2023/02/23 07:27:38;;;;;;;66.83;54.13;;;8.80;99.90;;;;;;5060514;28;20973;-73
2023/02/23 07:30:06;;;;;;;73.40;58.40;;;8.80;99.90;;;;;;5054184;28;20463;-73
2023/02/23 07:32:34;;;;;;;74.30;55.50;;;8.70;99.90;;;;;;5062726;28;20985;-73
2023/02/23 07:35:00;;;;;;;66.53;55.53;;;8.80;99.90;;;;;;5050863;28;20458;-73
2023/02/23 07:37:27;;;;;;;86.43;58.53;;;8.80;99.90;;;;;;5064392;28;20462;-73
2023/02/23 07:39:55;;;;;;;90.33;59.63;;;8.80;99.90;;;;;;5062041;28;20467;-73
2023/02/23 07:42:21;;;;;;;70.23;54.27;;;8.80;99.90;;;;;;5058096;28;20973;-72
2023/02/23 07:44:50;;;;;;;92.40;58.30;;;8.80;99.90;;;;;;5056264;28;21009;-73
2023/02/23 07:47:17;;;;;;;70.17;52.40;;;8.90;99.90;;;;;;5062006;28;20536;-73
2023/02/23 07:49:43;;;;;;;68.93;51.83;;;8.90;99.90;;;;;;5056858;28;20464;-73
2023/02/23 07:52:10;;;;;;;72.60;52.87;;;8.90;99.90;;;;;;5047407;28;20459;-72
2023/02/23 07:54:37;;;;;;;69.53;49.30;;;8.80;99.90;;;;;;5055846;28;20471;-73
2023/02/23 07:57:04;;;;;;;67.60;49.60;;;8.80;99.90;;;;;;5060589;28;20537;-73
2023/02/23 07:59:30;;;;;;;78.90;50.20;;;8.70;99.90;;;;;;5057261;28;21007;-73
2023/02/23 08:02:00;;;;;;;76.23;53.20;;;8.70;99.90;;;;;;5055363;28;20606;-73
2023/02/23 08:04:26;;;;;;;80.67;51.20;;;8.60;99.90;;;;;;5059409;28;20932;-72
2023/02/23 08:06:53;;;;;;;84.47;50.87;;;8.60;99.90;;;;;;5057172;28;21024;-74
2023/02/23 08:09:20;;;;;;;94.90;49.80;;;8.50;99.90;;;;;;5059341;28;20459;-74
2023/02/23 08:11:47;;;;;;;81.63;49.77;;;8.50;99.90;;;;;;5055188;28;20771;-73
2023/02/23 08:14:14;;;;;;;93.43;50.00;;;8.50;99.90;;;;;;5056457;28;20582;-74
2023/02/23 08:16:41;;;;;;;88.93;47.83;;;8.50;99.90;;;;;;5052681;28;20959;-74
2023/02/23 08:19:09;;;;;;;99.30;51.93;;;8.50;99.90;;;;;;5054047;28;20466;-73
2023/02/23 08:21:36;;;;;;;78.43;48.47;;;8.50;99.90;;;;;;5054936;28;20456;-72
2023/02/23 08:24:03;;;;;;;89.50;50.67;;;8.60;99.90;;;;;;5056892;28;20905;-73
2023/02/23 08:26:30;;;;;;;79.60;51.87;;;8.60;99.90;;;;;;5058322;28;20463;-72
2023/02/23 08:28:57;;;;;;;87.00;49.40;;;8.60;99.90;;;;;;5052695;28;20972;-73
2023/02/23 08:31:24;;;;;;;84.87;49.57;;;8.70;99.90;;;;;;5051107;28;20452;-72
2023/02/23 08:33:53;;;;;;;85.40;49.90;;;8.70;99.90;;;;;;5051614;28;21035;-74
2023/02/23 08:36:21;;;;;;;96.90;51.63;;;8.70;99.90;;;;;;5055146;28;20547;-73
2023/02/23 08:38:48;;;;;;;91.80;48.57;;;8.60;99.90;;;;;;5059326;28;20475;-74
2023/02/23 08:41:15;;;;;;;94.33;51.27;;;8.70;99.90;;;;;;5054976;28;20486;-72
2023/02/23 08:43:42;;;;;;;94.80;51.17;;;8.60;99.90;;;;;;5053926;28;20498;-73
2023/02/23 08:46:10;;;;;;;82.00;49.63;;;8.70;99.90;;;;;;5054191;28;20460;-71
2023/02/23 08:48:39;;;;;;;86.57;50.17;;;8.70;99.90;;;;;;5058679;28;20456;-73
2023/02/23 08:51:06;;;;;;;89.07;50.37;;;8.70;99.90;;;;;;5050175;28;20466;-71
2023/02/23 08:53:35;;;;;;;85.30;49.83;;;8.70;99.90;;;;;;5052272;28;20866;-71
2023/02/23 08:56:04;;;;;;;95.37;51.37;;;8.80;99.90;;;;;;5059233;28;20470;-72
2023/02/23 08:58:33;;;;;;;98.30;52.53;;;8.80;99.90;;;;;;5050129;28;20463;-70
2023/02/23 09:01:00;;;;;;;95.43;50.90;;;8.90;99.90;;;;;;5053827;28;20707;-71
2023/02/23 09:03:29;;;;;;;85.03;46.40;;;9.00;99.90;;;;;;5056731;28;20528;-73
2023/02/23 09:05:57;;;;;;;92.93;49.80;;;9.00;99.90;;;;;;5058248;28;21617;-70
2023/02/23 09:08:23;;;;;;;84.93;46.27;;;8.90;99.90;;;;;;5049592;28;20470;-73
2023/02/23 09:10:52;;;;;;;79.37;49.27;;;8.90;99.90;;;;;;5052333;28;20475;-71
2023/02/23 09:13:20;;;;;;;92.47;50.33;;;8.90;99.90;;;;;;5049035;28;20567;-70
2023/02/23 09:15:46;;;;;;;92.97;52.63;;;8.90;99.90;;;;;;5057972;28;20478;-73
2023/02/23 09:18:13;;;;;;;92.90;51.80;;;9.00;99.90;;;;;;5052200;28;20531;-73
2023/02/23 09:20:42;;;;;;;108.47;54.00;;;9.00;99.90;;;;;;5052629;28;20456;-71
2023/02/23 09:23:09;;;;;;;102.77;52.67;;;9.00;99.90;;;;;;5059819;28;20601;-71
2023/02/23 09:25:42;;;;;;;102.57;52.10;;;9.00;99.90;;;;;;5058446;28;20463;-70
2023/02/23 09:28:12;;;;;;;95.50;51.70;;;9.00;99.90;;;;;;5053247;28;20462;-73
2023/02/23 09:30:39;;;;;;;84.23;49.57;;;9.00;99.90;;;;;;5048607;28;20475;-70
2023/02/23 09:33:07;;;;;;;97.97;51.03;;;9.00;99.90;;;;;;5051738;28;20496;-71
2023/02/23 09:35:35;;;;;;;90.90;52.10;;;8.90;99.90;;;;;;5052974;28;20455;-72
2023/02/23 09:38:03;;;;;;;98.77;50.20;;;8.90;99.90;;;;;;5055410;28;20965;-70
2023/02/23 09:40:42;;;;;;;91.60;50.43;;;8.90;99.90;;;;;;5055550;28;20469;-71
2023/02/23 09:43:16;;;;;;;105.13;52.50;;;8.90;99.90;;;;;;5050087;28;20548;-70
2023/02/23 09:45:46;;;;;;;98.87;50.10;;;8.80;99.90;;;;;;5053058;28;20498;-71
2023/02/23 09:48:17;;;;;;;95.43;52.40;;;8.90;99.90;;;;;;5051487;28;20958;-71
2023/02/23 09:50:49;;;;;;;98.60;50.70;;;9.00;99.90;;;;;;5049388;28;20455;-70
2023/02/23 09:53:29;;;;;;;99.07;50.60;;;8.90;99.90;;;;;;5053553;28;20580;-71
2023/02/23 09:55:58;;;;;;;94.03;49.80;;;8.90;99.90;;;;;;5061524;28;20482;-71
2023/02/23 09:58:28;;;;;;;84.90;49.03;;;8.90;99.90;;;;;;5051825;28;20834;-71
2023/02/23 10:01:17;;;;;;;99.00;48.40;;;8.90;99.90;;;;;;5051613;28;20517;-71
2023/02/23 10:03:52;;;;;;;100.17;49.33;;;8.90;99.90;;;;;;5049755;28;20492;-71
2023/02/23 10:06:21;;;;;;;93.37;47.10;;;9.00;99.90;;;;;;5051445;28;20494;-71
2023/02/23 10:08:56;;;;;;;92.47;49.40;;;8.90;99.90;;;;;;5048795;28;20563;-71
2023/02/23 10:11:33;;;;;;;96.43;50.93;;;9.00;99.90;;;;;;5050012;28;20481;-71
2023/02/23 10:14:15;;;;;;;97.93;51.90;;;8.90;99.90;;;;;;5053323;28;20471;-71
2023/02/23 10:16:53;;;;;;;94.00;50.33;;;8.90;99.90;;;;;;5059278;28;20467;-71
2023/02/23 10:19:27;;;;;;;95.10;53.33;;;8.80;99.90;;;;;;5059072;28;20859;-71
2023/02/23 10:21:57;;;;;;;83.70;49.37;;;8.80;99.90;;;;;;5053484;28;21120;-71
2023/02/23 10:24:30;;;;;;;93.30;48.27;;;8.90;99.90;;;;;;5051546;28;20497;-71
2023/02/23 10:27:00;;;;;;;85.00;47.03;;;8.80;99.90;;;;;;5057747;28;20984;-71
2023/02/23 10:29:32;;;;;;;90.73;48.43;;;8.80;99.90;;;;;;5057627;28;20470;-71
2023/02/23 10:32:02;;;;;;;93.27;50.30;;;8.80;99.90;;;;;;5061466;28;20471;-70
2023/02/23 10:34:30;;;;;;;89.93;50.53;;;8.80;99.90;;;;;;5059216;28;21056;-70
2023/02/23 10:37:00;;;;;;;82.10;50.10;;;8.70;99.90;;;;;;5051330;28;20476;-71
2023/02/23 10:39:27;;;;;;;92.10;49.23;;;8.70;99.90;;;;;;5055399;28;20546;-70
2023/02/23 10:41:55;;;;;;;90.47;49.57;;;8.60;99.90;;;;;;5055448;28;20493;-70
2023/02/23 10:44:23;;;;;;;89.17;47.70;;;8.70;99.90;;;;;;5057977;28;20582;-70
2023/02/23 10:46:57;;;;;;;88.10;47.77;;;8.80;99.90;;;;;;5059791;28;20470;-71
2023/02/23 10:49:29;;;;;;;89.83;51.30;;;8.80;99.90;;;;;;5058193;28;20460;-71
2023/02/23 10:52:01;;;;;;;96.83;51.00;;;8.80;99.90;;;;;;5056172;28;20969;-70
2023/02/23 10:54:42;;;;;;;87.90;49.20;;;8.90;99.90;;;;;;5065457;28;20455;-70
2023/02/23 10:57:15;;;;;;;92.23;48.97;;;8.90;99.90;;;;;;5053241;28;20801;-70
2023/02/23 11:00:07;;;;;;;92.17;50.83;;;8.90;99.90;;;;;;5059695;28;20837;-71
2023/02/23 11:02:36;;;;;;;97.00;48.87;;;9.00;99.90;;;;;;5050708;28;20987;-70
2023/02/23 11:05:06;;;;;;;94.07;46.77;;;8.90;99.90;;;;;;5054084;28;20589;-71
2023/02/23 11:07:34;;;;;;;80.93;47.77;;;8.90;99.90;;;;;;5056729;28;20931;-71
2023/02/23 11:10:26;;;;;;;87.50;49.57;;;9.00;99.90;;;;;;5057592;28;20551;-70
2023/02/23 11:12:53;;;;;;;95.70;47.17;;;9.10;99.90;;;;;;5059316;28;20475;-71
2023/02/23 11:15:27;;;;;;;86.20;48.30;;;9.10;99.90;;;;;;5060149;28;20973;-71
2023/02/23 11:17:57;;;;;;;90.60;48.87;;;9.20;99.90;;;;;;5056334;28;20474;-70
2023/02/23 11:20:29;;;;;;;95.50;49.67;;;9.20;99.90;;;;;;5051824;28;20459;-70
2023/02/23 11:22:57;;;;;;;93.77;49.10;;;9.20;99.90;;;;;;5052030;28;20815;-70
2023/02/23 11:25:29;;;;;;;84.50;45.57;;;9.20;99.90;;;;;;5051468;28;20473;-70
2023/02/23 11:27:58;;;;;;;100.77;47.87;;;9.30;99.90;;;;;;5061589;28;20463;-70
2023/02/23 11:30:31;;;;;;;79.73;44.13;;;9.40;99.90;;;;;;5053298;28;20517;-72
2023/02/23 11:33:01;;;;;;;77.30;41.30;;;9.40;99.90;;;;;;5058573;28;20467;-71
2023/02/23 11:35:31;;;;;;;75.00;40.40;;;9.50;99.90;;;;;;5060906;28;20723;-71
2023/02/23 11:37:58;;;;;;;69.83;36.67;;;9.60;99.90;;;;;;5058804;28;20942;-70
2023/02/23 11:40:30;;;;;;;60.73;37.10;;;9.50;99.90;;;;;;5058872;28;20610;-70
2023/02/23 11:43:07;;;;;;;69.67;37.60;;;9.50;99.90;;;;;;5058456;28;20574;-70
2023/02/23 11:45:44;;;;;;;66.00;38.30;;;9.40;99.90;;;;;;5062741;28;20459;-70
2023/02/23 11:48:21;;;;;;;67.83;38.07;;;9.40;99.90;;;;;;5057537;28;20551;-70
2023/02/23 11:50:50;;;;;;;49.87;32.53;;;9.40;99.90;;;;;;5050293;28;20477;-71
2023/02/23 11:53:21;;;;;;;52.70;32.80;;;9.40;99.90;;;;;;5053164;28;20480;-71
2023/02/23 11:55:53;;;;;;;58.63;34.77;;;9.30;99.90;;;;;;5047574;28;20463;-71
2023/02/23 11:58:29;;;;;;;52.97;33.70;;;9.20;99.90;;;;;;5055412;28;20714;-71
2023/02/23 12:00:58;;;;;;;53.67;31.37;;;9.20;99.90;;;;;;5056516;28;20505;-71
2023/02/23 12:03:27;;;;;;;53.93;31.50;;;9.20;99.90;;;;;;5058512;28;20494;-72
2023/02/23 12:05:57;;;;;;;48.57;32.13;;;9.40;99.90;;;;;;5056624;28;20471;-71
2023/02/23 12:08:34;;;;;;;60.30;34.13;;;9.40;99.90;;;;;;5051804;28;20550;-70
2023/02/23 12:11:07;;;;;;;53.40;33.70;;;9.50;99.90;;;;;;5051213;28;20479;-72
2023/02/23 12:13:39;;;;;;;58.10;35.00;;;9.60;99.90;;;;;;5051355;28;20777;-72
2023/02/23 12:16:12;;;;;;;48.13;31.30;;;9.60;99.90;;;;;;5055896;28;20474;-71
2023/02/23 12:18:46;;;;;;;47.57;33.37;;;9.60;99.90;;;;;;5054435;28;20470;-71
2023/02/23 12:21:30;;;;;;;49.70;33.50;;;9.70;99.90;;;;;;5058776;28;20459;-74
2023/02/23 12:24:12;;;;;;;49.40;32.20;;;9.70;99.90;;;;;;5059850;28;20501;-72
2023/02/23 12:26:48;;;;;;;45.90;30.83;;;9.70;99.90;;;;;;5052601;28;20513;-72
2023/02/23 12:29:21;;;;;;;41.30;30.60;;;9.70;99.90;;;;;;5055380;28;20461;-71
2023/02/23 12:31:52;;;;;;;45.43;29.93;;;9.60;99.90;;;;;;5056811;28;20917;-71
2023/02/23 12:34:24;;;;;;;48.30;32.30;;;9.60;99.90;;;;;;5055926;28;20467;-70
2023/02/23 12:36:57;;;;;;;42.23;31.40;;;9.60;99.90;;;;;;5053723;28;20946;-71
2023/02/23 12:39:29;;;;;;;44.37;29.20;;;9.70;99.90;;;;;;5056466;28;20455;-71
2023/02/23 12:42:05;;;;;;;41.83;27.23;;;9.90;99.90;;;;;;5051272;28;20590;-71
2023/02/23 12:44:40;;;;;;;38.53;28.67;;;9.90;99.90;;;;;;5051637;28;21031;-74
2023/02/23 12:47:13;;;;;;;36.97;26.30;;;9.90;99.90;;;;;;5052517;28;20463;-70
2023/02/23 12:49:44;;;;;;;38.40;24.53;;;9.90;99.90;;;;;;5057546;28;20482;-70
2023/02/23 12:52:16;;;;;;;34.87;24.80;;;9.90;99.90;;;;;;5058577;28;20816;-70
2023/02/23 12:54:45;;;;;;;37.50;28.07;;;10.10;99.90;;;;;;5058824;28;20950;-71
2023/02/23 12:57:23;;;;;;;35.97;25.20;;;10.40;99.90;;;;;;5060425;28;20520;-73
2023/02/23 13:00:23;;;;;;;30.70;24.30;;;10.50;99.90;;;;;;5052642;28;20467;-73
2023/02/23 13:02:54;;;;;;;29.10;24.57;;;10.90;99.90;;;;;;5052560;28;20467;-72
2023/02/23 13:05:27;;;;;;;33.40;27.00;;;11.30;99.90;;;;;;5056131;28;20544;-69
2023/02/23 13:08:03;;;;;;;36.13;28.70;;;11.70;99.90;;;;;;5056122;28;20463;-71
2023/02/23 13:10:37;;;;;;;31.70;27.17;;;12.10;99.90;;;;;;5051603;28;20581;-70
2023/02/23 13:13:21;;;;;;;31.50;26.23;;;12.50;99.90;;;;;;5047069;28;20972;-73
2023/02/23 13:15:57;;;;;;;32.10;26.57;;;13.10;99.90;;;;;;5047179;28;20455;-70
2023/02/23 13:18:28;;;;;;;29.40;25.83;;;13.60;99.90;;;;;;5048786;28;20463;-70
2023/02/23 13:21:00;;;;;;;30.70;26.80;;;14.00;99.90;;;;;;5050772;28;20862;-71
2023/02/23 13:23:34;;;;;;;31.17;27.73;;;13.60;99.90;;;;;;5054585;28;20483;-73
2023/02/23 13:26:10;;;;;;;31.77;26.17;;;12.60;99.90;;;;;;5053208;28;20454;-72
2023/02/23 13:28:48;;;;;;;33.30;27.53;;;12.40;99.90;;;;;;5052120;28;21004;-71
2023/02/23 13:31:24;;;;;;;31.70;27.13;;;11.90;99.90;;;;;;5051204;28;20917;-73
2023/02/23 13:33:52;;;;;;;35.63;25.90;;;11.80;99.90;;;;;;5050601;28;20463;-73
2023/02/23 13:36:20;;;;;;;35.50;27.90;;;11.30;99.90;;;;;;5058678;28;20486;-70
2023/02/23 13:39:04;;;;;;;33.90;27.03;;;11.10;99.90;;;;;;5053230;28;20476;-73
2023/02/23 13:41:37;;;;;;;28.30;23.10;;;10.90;99.90;;;;;;5050621;28;21177;-70
2023/02/23 13:44:16;;;;;;;30.27;26.00;;;10.60;99.90;;;;;;5054928;28;20479;-73
2023/02/23 13:46:49;;;;;;;32.33;26.03;;;10.50;99.90;;;;;;5052734;28;20464;-71
2023/02/23 13:49:27;;;;;;;30.77;25.40;;;10.60;99.90;;;;;;5053684;28;20603;-70
2023/02/23 13:51:57;;;;;;;30.53;25.50;;;10.70;99.90;;;;;;5056274;28;20554;-70
2023/02/23 13:54:30;;;;;;;29.07;23.03;;;10.60;99.90;;;;;;5052811;28;20969;-74
2023/02/23 13:57:00;;;;;;;27.73;21.73;;;10.50;99.90;;;;;;5055610;28;20455;-71
2023/02/23 13:59:32;;;;;;;33.00;24.17;;;10.40;99.90;;;;;;5054981;28;20464;-71
2023/02/23 14:02:02;;;;;;;31.83;25.60;;;10.20;99.90;;;;;;5048080;28;20922;-71
2023/02/23 14:04:35;;;;;;;29.13;24.60;;;10.20;99.90;;;;;;5048122;28;20483;-71
2023/02/23 14:07:05;;;;;;;37.10;26.63;;;10.30;99.90;;;;;;5051066;28;20505;-74
2023/02/23 14:09:35;;;;;;;34.80;26.13;;;10.30;99.90;;;;;;5060550;28;20455;-71
2023/02/23 14:12:06;;;;;;;35.40;25.00;;;10.30;99.90;;;;;;5051853;28;20463;-71